sensor_id;sensor_type;location;lat;lon;timestamp;P1;durP1;ratioP1;P2;durP2;ratioP2
52854;SDS011;38719;51.418;7.286;2022-09-30T00:01:23;5.72;;;3.90;;
52854;SDS011;38719;51.418;7.286;2022-09-30T00:03:54;11.18;;;3.88;;
52854;SDS011;38719;51.418;7.286;2022-09-30T00:06:23;6.50;;;4.07;;
52854;SDS011;38719;51.418;7.286;2022-09-30T00:08:52;5.20;;;3.38;;
52854;SDS011;38719;51.418;7.286;2022-09-30T00:11:21;7.70;;;3.63;;
52854;SDS011;38719;51.418;7.286;2022-09-30T00:13:51;4.85;;;3.60;;
52854;SDS011;38719;51.418;7.286;2022-09-30T00:16:19;7.28;;;3.85;;
52854;SDS011;38719;51.418;7.286;2022-09-30T00:18:53;5.95;;;3.75;;
52854;SDS011;38719;51.418;7.286;2022-09-30T00:21:21;15.25;;;3.63;;
52854;SDS011;38719;51.418;7.286;2022-09-30T00:23:49;6.28;;;3.53;;
52854;SDS011;38719;51.418;7.286;2022-09-30T00:26:19;4.72;;;3.60;;
52854;SDS011;38719;51.418;7.286;2022-09-30T00:28:48;7.47;;;3.80;;
52854;SDS011;38719;51.418;7.286;2022-09-30T00:31:17;4.35;;;3.60;;
52854;SDS011;38719;51.418;7.286;2022-09-30T00:33:46;8.18;;;3.65;;
52854;SDS011;38719;51.418;7.286;2022-09-30T00:36:33;4.07;;;3.30;;
52854;SDS011;38719;51.418;7.286;2022-09-30T00:39:03;4.07;;;3.55;;
52854;SDS011;38719;51.418;7.286;2022-09-30T00:41:31;5.63;;;3.55;;
52854;SDS011;38719;51.418;7.286;2022-09-30T00:43:59;5.30;;;3.25;;
52854;SDS011;38719;51.418;7.286;2022-09-30T00:46:30;5.70;;;3.53;;
52854;SDS011;38719;51.418;7.286;2022-09-30T00:49:08;6.93;;;4.07;;
52854;SDS011;38719;51.418;7.286;2022-09-30T00:51:42;4.97;;;3.90;;
52854;SDS011;38719;51.418;7.286;2022-09-30T00:54:13;6.53;;;3.55;;
52854;SDS011;38719;51.418;7.286;2022-09-30T00:56:43;8.15;;;3.20;;
52854;SDS011;38719;51.418;7.286;2022-09-30T00:59:16;4.50;;;3.47;;
52854;SDS011;38719;51.418;7.286;2022-09-30T01:01:47;5.38;;;3.53;;
52854;SDS011;38719;51.418;7.286;2022-09-30T01:04:16;5.65;;;3.67;;
52854;SDS011;38719;51.418;7.286;2022-09-30T01:06:47;5.93;;;3.38;;
52854;SDS011;38719;51.418;7.286;2022-09-30T01:09:16;4.47;;;3.50;;
52854;SDS011;38719;51.418;7.286;2022-09-30T01:11:45;5.95;;;3.67;;
52854;SDS011;38719;51.418;7.286;2022-09-30T01:14:14;5.22;;;3.67;;
52854;SDS011;38719;51.418;7.286;2022-09-30T01:16:49;7.35;;;3.67;;
52854;SDS011;38719;51.418;7.286;2022-09-30T01:19:27;7.13;;;3.70;;
52854;SDS011;38719;51.418;7.286;2022-09-30T01:22:21;4.90;;;3.53;;
52854;SDS011;38719;51.418;7.286;2022-09-30T01:28:23;8.15;;;3.95;;
52854;SDS011;38719;51.418;7.286;2022-09-30T01:31:16;7.10;;;3.88;;
52854;SDS011;38719;51.418;7.286;2022-09-30T01:33:51;4.35;;;3.72;;
52854;SDS011;38719;51.418;7.286;2022-09-30T01:36:27;5.85;;;3.63;;
52854;SDS011;38719;51.418;7.286;2022-09-30T01:39:09;7.18;;;4.32;;
52854;SDS011;38719;51.418;7.286;2022-09-30T01:41:49;6.43;;;3.63;;
52854;SDS011;38719;51.418;7.286;2022-09-30T01:44:23;5.57;;;4.03;;
52854;SDS011;38719;51.418;7.286;2022-09-30T01:47:02;10.48;;;4.47;;
52854;SDS011;38719;51.418;7.286;2022-09-30T01:49:37;6.00;;;3.92;;
52854;SDS011;38719;51.418;7.286;2022-09-30T01:52:11;10.90;;;4.38;;
52854;SDS011;38719;51.418;7.286;2022-09-30T01:54:43;7.00;;;4.38;;
52854;SDS011;38719;51.418;7.286;2022-09-30T01:57:15;7.35;;;4.28;;
52854;SDS011;38719;51.418;7.286;2022-09-30T01:59:46;6.63;;;4.30;;
52854;SDS011;38719;51.418;7.286;2022-09-30T02:02:23;11.75;;;4.20;;
52854;SDS011;38719;51.418;7.286;2022-09-30T02:04:54;7.68;;;4.47;;
52854;SDS011;38719;51.418;7.286;2022-09-30T02:07:24;8.13;;;4.22;;
52854;SDS011;38719;51.418;7.286;2022-09-30T02:09:58;5.60;;;4.20;;
52854;SDS011;38719;51.418;7.286;2022-09-30T02:12:32;5.40;;;4.00;;
52854;SDS011;38719;51.418;7.286;2022-09-30T02:15:05;7.93;;;4.43;;
52854;SDS011;38719;51.418;7.286;2022-09-30T02:17:38;7.57;;;4.20;;
52854;SDS011;38719;51.418;7.286;2022-09-30T02:20:11;7.82;;;4.22;;
52854;SDS011;38719;51.418;7.286;2022-09-30T02:22:44;12.48;;;5.22;;
52854;SDS011;38719;51.418;7.286;2022-09-30T02:25:16;11.55;;;5.28;;
52854;SDS011;38719;51.418;7.286;2022-09-30T02:27:49;8.98;;;4.68;;
52854;SDS011;38719;51.418;7.286;2022-09-30T02:30:20;7.10;;;5.53;;
52854;SDS011;38719;51.418;7.286;2022-09-30T02:32:50;9.45;;;5.90;;
52854;SDS011;38719;51.418;7.286;2022-09-30T02:35:22;8.88;;;5.05;;
52854;SDS011;38719;51.418;7.286;2022-09-30T02:37:54;11.73;;;4.85;;
52854;SDS011;38719;51.418;7.286;2022-09-30T02:40:26;8.60;;;5.05;;
52854;SDS011;38719;51.418;7.286;2022-09-30T02:42:57;7.80;;;4.90;;
52854;SDS011;38719;51.418;7.286;2022-09-30T02:45:25;7.30;;;5.18;;
52854;SDS011;38719;51.418;7.286;2022-09-30T02:48:03;6.63;;;4.90;;
52854;SDS011;38719;51.418;7.286;2022-09-30T02:50:42;5.85;;;4.53;;
52854;SDS011;38719;51.418;7.286;2022-09-30T02:53:16;9.02;;;5.30;;
52854;SDS011;38719;51.418;7.286;2022-09-30T02:55:59;8.70;;;5.40;;
52854;SDS011;38719;51.418;7.286;2022-09-30T02:58:33;9.10;;;5.50;;
52854;SDS011;38719;51.418;7.286;2022-09-30T03:01:04;10.00;;;5.65;;
52854;SDS011;38719;51.418;7.286;2022-09-30T03:03:36;6.93;;;5.25;;
52854;SDS011;38719;51.418;7.286;2022-09-30T03:06:05;10.20;;;5.18;;
52854;SDS011;38719;51.418;7.286;2022-09-30T03:08:33;8.95;;;5.60;;
52854;SDS011;38719;51.418;7.286;2022-09-30T03:11:02;9.85;;;6.10;;
52854;SDS011;38719;51.418;7.286;2022-09-30T03:13:40;9.57;;;5.32;;
52854;SDS011;38719;51.418;7.286;2022-09-30T03:16:40;9.05;;;5.38;;
52854;SDS011;38719;51.418;7.286;2022-09-30T03:19:29;9.90;;;5.93;;
52854;SDS011;38719;51.418;7.286;2022-09-30T03:22:15;7.75;;;5.22;;
52854;SDS011;38719;51.418;7.286;2022-09-30T03:24:58;8.93;;;5.53;;
52854;SDS011;38719;51.418;7.286;2022-09-30T03:27:38;7.30;;;5.30;;
52854;SDS011;38719;51.418;7.286;2022-09-30T03:30:17;10.88;;;5.97;;
52854;SDS011;38719;51.418;7.286;2022-09-30T03:32:53;8.05;;;5.75;;
52854;SDS011;38719;51.418;7.286;2022-09-30T03:35:31;12.30;;;6.22;;
52854;SDS011;38719;51.418;7.286;2022-09-30T03:38:08;9.40;;;6.60;;
52854;SDS011;38719;51.418;7.286;2022-09-30T03:40:42;10.82;;;6.57;;
52854;SDS011;38719;51.418;7.286;2022-09-30T03:43:21;9.90;;;7.05;;
52854;SDS011;38719;51.418;7.286;2022-09-30T03:45:57;11.10;;;7.10;;
52854;SDS011;38719;51.418;7.286;2022-09-30T03:48:31;10.88;;;6.63;;
52854;SDS011;38719;51.418;7.286;2022-09-30T03:51:03;11.27;;;7.47;;
52854;SDS011;38719;51.418;7.286;2022-09-30T03:53:36;10.30;;;7.35;;
52854;SDS011;38719;51.418;7.286;2022-09-30T03:56:05;12.00;;;7.70;;
52854;SDS011;38719;51.418;7.286;2022-09-30T03:58:32;13.00;;;8.07;;
52854;SDS011;38719;51.418;7.286;2022-09-30T04:01:00;9.20;;;7.10;;
52854;SDS011;38719;51.418;7.286;2022-09-30T04:03:28;11.27;;;7.57;;
52854;SDS011;38719;51.418;7.286;2022-09-30T04:05:55;13.35;;;7.07;;
52854;SDS011;38719;51.418;7.286;2022-09-30T04:08:24;15.02;;;8.52;;
52854;SDS011;38719;51.418;7.286;2022-09-30T04:10:58;11.32;;;6.93;;
52854;SDS011;38719;51.418;7.286;2022-09-30T04:13:26;12.73;;;8.50;;
52854;SDS011;38719;51.418;7.286;2022-09-30T04:15:53;13.20;;;8.35;;
52854;SDS011;38719;51.418;7.286;2022-09-30T04:18:21;12.93;;;8.50;;
52854;SDS011;38719;51.418;7.286;2022-09-30T04:20:49;14.90;;;8.05;;
52854;SDS011;38719;51.418;7.286;2022-09-30T04:23:17;15.65;;;8.93;;
52854;SDS011;38719;51.418;7.286;2022-09-30T04:25:51;11.88;;;8.90;;
52854;SDS011;38719;51.418;7.286;2022-09-30T04:28:19;11.85;;;9.07;;
52854;SDS011;38719;51.418;7.286;2022-09-30T04:30:46;15.02;;;9.13;;
52854;SDS011;38719;51.418;7.286;2022-09-30T04:33:14;13.65;;;9.02;;
52854;SDS011;38719;51.418;7.286;2022-09-30T04:35:41;13.15;;;9.02;;
52854;SDS011;38719;51.418;7.286;2022-09-30T04:38:09;11.57;;;8.57;;
52854;SDS011;38719;51.418;7.286;2022-09-30T04:40:37;13.07;;;8.80;;
52854;SDS011;38719;51.418;7.286;2022-09-30T04:43:06;15.05;;;9.60;;
52854;SDS011;38719;51.418;7.286;2022-09-30T04:45:34;13.25;;;9.07;;
52854;SDS011;38719;51.418;7.286;2022-09-30T04:48:02;11.77;;;8.63;;
52854;SDS011;38719;51.418;7.286;2022-09-30T04:50:29;12.88;;;8.80;;
52854;SDS011;38719;51.418;7.286;2022-09-30T04:52:57;16.10;;;9.80;;
52854;SDS011;38719;51.418;7.286;2022-09-30T04:55:25;12.32;;;8.80;;
52854;SDS011;38719;51.418;7.286;2022-09-30T04:57:52;14.52;;;8.80;;
52854;SDS011;38719;51.418;7.286;2022-09-30T05:00:21;14.07;;;9.40;;
52854;SDS011;38719;51.418;7.286;2022-09-30T05:02:50;12.40;;;8.77;;
52854;SDS011;38719;51.418;7.286;2022-09-30T05:05:18;19.70;;;9.40;;
52854;SDS011;38719;51.418;7.286;2022-09-30T05:07:46;19.35;;;9.95;;
52854;SDS011;38719;51.418;7.286;2022-09-30T05:10:13;14.93;;;9.70;;
52854;SDS011;38719;51.418;7.286;2022-09-30T05:12:41;15.13;;;9.43;;
52854;SDS011;38719;51.418;7.286;2022-09-30T05:15:10;14.90;;;9.25;;
52854;SDS011;38719;51.418;7.286;2022-09-30T05:17:39;17.08;;;9.75;;
52854;SDS011;38719;51.418;7.286;2022-09-30T05:20:07;13.63;;;8.60;;
52854;SDS011;38719;51.418;7.286;2022-09-30T05:22:36;15.20;;;10.25;;
52854;SDS011;38719;51.418;7.286;2022-09-30T05:25:04;14.65;;;9.63;;
52854;SDS011;38719;51.418;7.286;2022-09-30T05:27:32;16.23;;;9.75;;
52854;SDS011;38719;51.418;7.286;2022-09-30T05:30:00;13.38;;;9.18;;
52854;SDS011;38719;51.418;7.286;2022-09-30T05:32:27;16.88;;;9.10;;
52854;SDS011;38719;51.418;7.286;2022-09-30T05:34:57;15.77;;;10.18;;
52854;SDS011;38719;51.418;7.286;2022-09-30T05:37:28;12.80;;;9.30;;
52854;SDS011;38719;51.418;7.286;2022-09-30T05:39:56;16.33;;;9.55;;
52854;SDS011;38719;51.418;7.286;2022-09-30T05:42:24;15.57;;;10.10;;
52854;SDS011;38719;51.418;7.286;2022-09-30T05:44:51;13.15;;;9.50;;
52854;SDS011;38719;51.418;7.286;2022-09-30T05:47:19;13.68;;;9.63;;
52854;SDS011;38719;51.418;7.286;2022-09-30T05:49:47;23.27;;;10.52;;
52854;SDS011;38719;51.418;7.286;2022-09-30T05:52:21;12.85;;;9.45;;
52854;SDS011;38719;51.418;7.286;2022-09-30T05:54:49;16.98;;;9.50;;
52854;SDS011;38719;51.418;7.286;2022-09-30T05:57:17;14.77;;;10.73;;
52854;SDS011;38719;51.418;7.286;2022-09-30T05:59:44;14.50;;;9.25;;
52854;SDS011;38719;51.418;7.286;2022-09-30T06:02:12;18.52;;;9.30;;
52854;SDS011;38719;51.418;7.286;2022-09-30T06:04:54;15.15;;;9.15;;
52854;SDS011;38719;51.418;7.286;2022-09-30T06:07:23;12.57;;;9.40;;
52854;SDS011;38719;51.418;7.286;2022-09-30T06:09:51;18.10;;;9.35;;
52854;SDS011;38719;51.418;7.286;2022-09-30T06:12:18;17.52;;;9.48;;
52854;SDS011;38719;51.418;7.286;2022-09-30T06:14:46;12.77;;;9.55;;
52854;SDS011;38719;51.418;7.286;2022-09-30T06:17:13;14.07;;;9.30;;
52854;SDS011;38719;51.418;7.286;2022-09-30T06:19:43;14.55;;;9.85;;
52854;SDS011;38719;51.418;7.286;2022-09-30T06:22:11;12.02;;;8.73;;
52854;SDS011;38719;51.418;7.286;2022-09-30T06:24:40;11.98;;;8.45;;
52854;SDS011;38719;51.418;7.286;2022-09-30T06:27:07;12.88;;;8.85;;
52854;SDS011;38719;51.418;7.286;2022-09-30T06:29:36;12.65;;;8.27;;
52854;SDS011;38719;51.418;7.286;2022-09-30T06:32:03;13.80;;;8.90;;
52854;SDS011;38719;51.418;7.286;2022-09-30T06:34:32;12.82;;;8.63;;
52854;SDS011;38719;51.418;7.286;2022-09-30T06:37:00;14.52;;;8.93;;
52854;SDS011;38719;51.418;7.286;2022-09-30T06:39:27;13.57;;;8.88;;
52854;SDS011;38719;51.418;7.286;2022-09-30T06:41:56;13.00;;;8.95;;
52854;SDS011;38719;51.418;7.286;2022-09-30T06:44:24;14.88;;;9.18;;
52854;SDS011;38719;51.418;7.286;2022-09-30T06:46:52;14.27;;;8.98;;
52854;SDS011;38719;51.418;7.286;2022-09-30T06:49:19;19.70;;;8.82;;
52854;SDS011;38719;51.418;7.286;2022-09-30T06:51:48;15.98;;;9.25;;
52854;SDS011;38719;51.418;7.286;2022-09-30T06:54:16;14.00;;;8.23;;
52854;SDS011;38719;51.418;7.286;2022-09-30T06:56:45;16.42;;;9.57;;
52854;SDS011;38719;51.418;7.286;2022-09-30T06:59:14;13.63;;;8.52;;
52854;SDS011;38719;51.418;7.286;2022-09-30T07:01:42;14.02;;;8.50;;
52854;SDS011;38719;51.418;7.286;2022-09-30T07:04:10;22.55;;;10.00;;
52854;SDS011;38719;51.418;7.286;2022-09-30T07:06:38;16.77;;;8.93;;
52854;SDS011;38719;51.418;7.286;2022-09-30T07:09:07;12.98;;;8.95;;
52854;SDS011;38719;51.418;7.286;2022-09-30T07:11:36;16.33;;;8.90;;
52854;SDS011;38719;51.418;7.286;2022-09-30T07:14:04;12.00;;;8.25;;
52854;SDS011;38719;51.418;7.286;2022-09-30T07:16:34;11.60;;;8.10;;
52854;SDS011;38719;51.418;7.286;2022-09-30T07:19:02;13.48;;;8.40;;
52854;SDS011;38719;51.418;7.286;2022-09-30T07:21:30;12.00;;;8.13;;
52854;SDS011;38719;51.418;7.286;2022-09-30T07:23:58;11.80;;;8.57;;
52854;SDS011;38719;51.418;7.286;2022-09-30T07:26:26;16.00;;;8.98;;
52854;SDS011;38719;51.418;7.286;2022-09-30T07:28:54;12.43;;;9.05;;
52854;SDS011;38719;51.418;7.286;2022-09-30T07:31:22;14.30;;;9.00;;
52854;SDS011;38719;51.418;7.286;2022-09-30T07:34:01;14.02;;;8.13;;
52854;SDS011;38719;51.418;7.286;2022-09-30T07:36:29;14.88;;;9.50;;
52854;SDS011;38719;51.418;7.286;2022-09-30T07:38:59;12.95;;;9.43;;
52854;SDS011;38719;51.418;7.286;2022-09-30T07:41:31;12.82;;;9.20;;
52854;SDS011;38719;51.418;7.286;2022-09-30T07:43:59;17.23;;;9.60;;
52854;SDS011;38719;51.418;7.286;2022-09-30T07:46:28;17.42;;;9.20;;
52854;SDS011;38719;51.418;7.286;2022-09-30T07:48:58;15.93;;;9.55;;
52854;SDS011;38719;51.418;7.286;2022-09-30T07:51:31;17.85;;;10.48;;
52854;SDS011;38719;51.418;7.286;2022-09-30T07:54:01;19.75;;;10.80;;
52854;SDS011;38719;51.418;7.286;2022-09-30T07:56:31;18.73;;;9.80;;
52854;SDS011;38719;51.418;7.286;2022-09-30T07:59:18;16.48;;;10.23;;
52854;SDS011;38719;51.418;7.286;2022-09-30T08:01:47;17.17;;;9.93;;
52854;SDS011;38719;51.418;7.286;2022-09-30T08:04:16;15.13;;;9.90;;
52854;SDS011;38719;51.418;7.286;2022-09-30T08:06:47;13.40;;;9.20;;
52854;SDS011;38719;51.418;7.286;2022-09-30T08:09:18;19.13;;;9.93;;
52854;SDS011;38719;51.418;7.286;2022-09-30T08:11:47;12.82;;;9.38;;
52854;SDS011;38719;51.418;7.286;2022-09-30T08:14:15;14.20;;;9.77;;
52854;SDS011;38719;51.418;7.286;2022-09-30T08:16:44;14.48;;;9.55;;
52854;SDS011;38719;51.418;7.286;2022-09-30T08:19:13;14.93;;;10.23;;
52854;SDS011;38719;51.418;7.286;2022-09-30T08:21:42;17.00;;;9.68;;
52854;SDS011;38719;51.418;7.286;2022-09-30T08:24:11;14.63;;;9.10;;
52854;SDS011;38719;51.418;7.286;2022-09-30T08:26:40;16.08;;;9.38;;
52854;SDS011;38719;51.418;7.286;2022-09-30T08:29:08;13.48;;;8.98;;
52854;SDS011;38719;51.418;7.286;2022-09-30T08:31:46;15.00;;;9.55;;
52854;SDS011;38719;51.418;7.286;2022-09-30T08:34:15;14.00;;;9.25;;
52854;SDS011;38719;51.418;7.286;2022-09-30T08:36:42;18.05;;;9.30;;
52854;SDS011;38719;51.418;7.286;2022-09-30T08:39:13;16.17;;;9.55;;
52854;SDS011;38719;51.418;7.286;2022-09-30T08:41:47;15.93;;;9.50;;
52854;SDS011;38719;51.418;7.286;2022-09-30T08:44:50;15.30;;;8.77;;
52854;SDS011;38719;51.418;7.286;2022-09-30T08:47:26;17.05;;;9.57;;
52854;SDS011;38719;51.418;7.286;2022-09-30T08:50:09;13.73;;;8.73;;
52854;SDS011;38719;51.418;7.286;2022-09-30T08:52:44;16.17;;;9.93;;
52854;SDS011;38719;51.418;7.286;2022-09-30T08:55:17;12.35;;;8.80;;
52854;SDS011;38719;51.418;7.286;2022-09-30T08:57:48;15.27;;;9.80;;
52854;SDS011;38719;51.418;7.286;2022-09-30T09:00:20;11.27;;;7.90;;
52854;SDS011;38719;51.418;7.286;2022-09-30T09:02:49;17.30;;;8.30;;
52854;SDS011;38719;51.418;7.286;2022-09-30T09:05:23;11.65;;;7.68;;
52854;SDS011;38719;51.418;7.286;2022-09-30T09:08:06;10.38;;;7.22;;
52854;SDS011;38719;51.418;7.286;2022-09-30T09:10:45;12.68;;;7.85;;
52854;SDS011;38719;51.418;7.286;2022-09-30T09:13:24;15.13;;;8.30;;
52854;SDS011;38719;51.418;7.286;2022-09-30T09:16:10;12.68;;;7.40;;
52854;SDS011;38719;51.418;7.286;2022-09-30T09:18:46;14.10;;;7.13;;
52854;SDS011;38719;51.418;7.286;2022-09-30T09:21:28;10.93;;;5.95;;
52854;SDS011;38719;51.418;7.286;2022-09-30T09:24:03;13.35;;;6.50;;
52854;SDS011;38719;51.418;7.286;2022-09-30T09:26:38;11.20;;;7.35;;
52854;SDS011;38719;51.418;7.286;2022-09-30T09:29:08;9.57;;;6.40;;
52854;SDS011;38719;51.418;7.286;2022-09-30T09:31:46;8.73;;;6.10;;
52854;SDS011;38719;51.418;7.286;2022-09-30T09:34:14;12.73;;;6.18;;
52854;SDS011;38719;51.418;7.286;2022-09-30T09:36:45;12.95;;;7.47;;
52854;SDS011;38719;51.418;7.286;2022-09-30T09:39:28;10.68;;;5.63;;
52854;SDS011;38719;51.418;7.286;2022-09-30T09:42:14;10.77;;;5.97;;
52854;SDS011;38719;51.418;7.286;2022-09-30T09:44:56;11.90;;;5.93;;
52854;SDS011;38719;51.418;7.286;2022-09-30T09:47:28;10.85;;;6.28;;
52854;SDS011;38719;51.418;7.286;2022-09-30T09:49:57;8.95;;;6.45;;
52854;SDS011;38719;51.418;7.286;2022-09-30T09:55:24;8.70;;;5.97;;
52854;SDS011;38719;51.418;7.286;2022-09-30T09:58:09;10.57;;;6.35;;
52854;SDS011;38719;51.418;7.286;2022-09-30T10:00:39;11.70;;;6.50;;
52854;SDS011;38719;51.418;7.286;2022-09-30T10:03:34;11.38;;;5.85;;
52854;SDS011;38719;51.418;7.286;2022-09-30T10:06:03;8.52;;;5.20;;
52854;SDS011;38719;51.418;7.286;2022-09-30T10:08:33;8.90;;;5.65;;
52854;SDS011;38719;51.418;7.286;2022-09-30T10:11:04;13.77;;;6.38;;
52854;SDS011;38719;51.418;7.286;2022-09-30T10:13:41;8.95;;;5.90;;
52854;SDS011;38719;51.418;7.286;2022-09-30T10:16:21;11.48;;;5.82;;
52854;SDS011;38719;51.418;7.286;2022-09-30T10:18:54;8.77;;;5.15;;
52854;SDS011;38719;51.418;7.286;2022-09-30T10:21:22;10.68;;;5.00;;
52854;SDS011;38719;51.418;7.286;2022-09-30T10:23:51;8.05;;;4.65;;
52854;SDS011;38719;51.418;7.286;2022-09-30T10:26:20;8.70;;;6.07;;
52854;SDS011;38719;51.418;7.286;2022-09-30T10:28:51;9.40;;;6.07;;
52854;SDS011;38719;51.418;7.286;2022-09-30T10:31:21;9.30;;;5.10;;
52854;SDS011;38719;51.418;7.286;2022-09-30T10:33:53;10.48;;;4.57;;
52854;SDS011;38719;51.418;7.286;2022-09-30T10:36:28;11.45;;;4.90;;
52854;SDS011;38719;51.418;7.286;2022-09-30T10:39:00;8.05;;;4.88;;
52854;SDS011;38719;51.418;7.286;2022-09-30T10:41:33;11.30;;;5.10;;
52854;SDS011;38719;51.418;7.286;2022-09-30T10:44:04;10.00;;;4.80;;
52854;SDS011;38719;51.418;7.286;2022-09-30T10:46:39;8.77;;;4.45;;
52854;SDS011;38719;51.418;7.286;2022-09-30T10:49:10;10.05;;;5.47;;
52854;SDS011;38719;51.418;7.286;2022-09-30T10:51:46;9.00;;;4.22;;
52854;SDS011;38719;51.418;7.286;2022-09-30T10:57:13;9.40;;;4.80;;
52854;SDS011;38719;51.418;7.286;2022-09-30T10:59:43;13.05;;;4.80;;
52854;SDS011;38719;51.418;7.286;2022-09-30T11:02:16;13.07;;;4.85;;
52854;SDS011;38719;51.418;7.286;2022-09-30T11:04:49;8.23;;;3.90;;
52854;SDS011;38719;51.418;7.286;2022-09-30T11:07:27;7.85;;;4.03;;
52854;SDS011;38719;51.418;7.286;2022-09-30T11:09:59;5.47;;;4.15;;
52854;SDS011;38719;51.418;7.286;2022-09-30T11:12:35;8.90;;;4.45;;
52854;SDS011;38719;51.418;7.286;2022-09-30T11:15:12;5.38;;;3.70;;
52854;SDS011;38719;51.418;7.286;2022-09-30T11:17:49;5.60;;;3.80;;
52854;SDS011;38719;51.418;7.286;2022-09-30T11:20:23;6.80;;;3.92;;
52854;SDS011;38719;51.418;7.286;2022-09-30T11:22:55;10.13;;;4.40;;
52854;SDS011;38719;51.418;7.286;2022-09-30T11:25:30;9.33;;;3.77;;
52854;SDS011;38719;51.418;7.286;2022-09-30T11:28:10;6.75;;;3.70;;
52854;SDS011;38719;51.418;7.286;2022-09-30T11:30:52;6.95;;;4.60;;
52854;SDS011;38719;51.418;7.286;2022-09-30T11:33:39;5.15;;;4.07;;
52854;SDS011;38719;51.418;7.286;2022-09-30T11:36:15;8.75;;;4.47;;
52854;SDS011;38719;51.418;7.286;2022-09-30T11:38:55;7.03;;;4.05;;
52854;SDS011;38719;51.418;7.286;2022-09-30T11:41:31;8.43;;;3.95;;
52854;SDS011;38719;51.418;7.286;2022-09-30T11:44:06;6.47;;;4.15;;
52854;SDS011;38719;51.418;7.286;2022-09-30T11:47:01;7.32;;;4.30;;
52854;SDS011;38719;51.418;7.286;2022-09-30T11:49:58;7.03;;;4.15;;
52854;SDS011;38719;51.418;7.286;2022-09-30T11:52:41;6.78;;;3.90;;
52854;SDS011;38719;51.418;7.286;2022-09-30T11:55:24;6.82;;;3.70;;
52854;SDS011;38719;51.418;7.286;2022-09-30T11:58:07;5.88;;;4.03;;
52854;SDS011;38719;51.418;7.286;2022-09-30T12:00:57;8.32;;;4.05;;
52854;SDS011;38719;51.418;7.286;2022-09-30T12:03:34;6.65;;;4.05;;
52854;SDS011;38719;51.418;7.286;2022-09-30T12:06:08;7.15;;;4.63;;
52854;SDS011;38719;51.418;7.286;2022-09-30T12:08:42;9.82;;;4.32;;
52854;SDS011;38719;51.418;7.286;2022-09-30T12:11:15;6.65;;;3.63;;
52854;SDS011;38719;51.418;7.286;2022-09-30T12:13:47;6.88;;;3.97;;
52854;SDS011;38719;51.418;7.286;2022-09-30T12:16:22;6.82;;;2.90;;
52854;SDS011;38719;51.418;7.286;2022-09-30T12:18:54;10.68;;;4.00;;
52854;SDS011;38719;51.418;7.286;2022-09-30T12:21:25;7.18;;;3.58;;
52854;SDS011;38719;51.418;7.286;2022-09-30T12:23:58;4.97;;;3.83;;
52854;SDS011;38719;51.418;7.286;2022-09-30T12:26:29;5.80;;;3.30;;
52854;SDS011;38719;51.418;7.286;2022-09-30T12:28:58;5.97;;;3.65;;
52854;SDS011;38719;51.418;7.286;2022-09-30T12:32:00;6.03;;;3.33;;
52854;SDS011;38719;51.418;7.286;2022-09-30T12:34:40;5.28;;;3.15;;
52854;SDS011;38719;51.418;7.286;2022-09-30T12:37:26;6.18;;;3.55;;
52854;SDS011;38719;51.418;7.286;2022-09-30T12:40:16;4.88;;;3.75;;
52854;SDS011;38719;51.418;7.286;2022-09-30T12:43:14;8.98;;;3.33;;
52854;SDS011;38719;51.418;7.286;2022-09-30T12:45:58;5.28;;;2.95;;
52854;SDS011;38719;51.418;7.286;2022-09-30T12:48:36;12.50;;;3.40;;
52854;SDS011;38719;51.418;7.286;2022-09-30T12:51:09;12.07;;;3.15;;
52854;SDS011;38719;51.418;7.286;2022-09-30T12:53:48;7.07;;;3.05;;
52854;SDS011;38719;51.418;7.286;2022-09-30T12:56:19;4.75;;;2.90;;
52854;SDS011;38719;51.418;7.286;2022-09-30T12:58:48;8.70;;;4.07;;
52854;SDS011;38719;51.418;7.286;2022-09-30T13:01:18;6.63;;;3.58;;
52854;SDS011;38719;51.418;7.286;2022-09-30T13:03:50;8.63;;;3.15;;
52854;SDS011;38719;51.418;7.286;2022-09-30T13:09:19;5.35;;;3.13;;
52854;SDS011;38719;51.418;7.286;2022-09-30T13:14:42;4.70;;;2.80;;
52854;SDS011;38719;51.418;7.286;2022-09-30T13:17:25;5.03;;;3.00;;
52854;SDS011;38719;51.418;7.286;2022-09-30T13:19:53;9.25;;;3.30;;
52854;SDS011;38719;51.418;7.286;2022-09-30T13:25:26;5.78;;;3.10;;
52854;SDS011;38719;51.418;7.286;2022-09-30T13:28:28;10.63;;;3.05;;
52854;SDS011;38719;51.418;7.286;2022-09-30T13:31:13;4.72;;;2.97;;
52854;SDS011;38719;51.418;7.286;2022-09-30T13:33:45;4.20;;;3.28;;
52854;SDS011;38719;51.418;7.286;2022-09-30T13:42:02;3.90;;;3.20;;
52854;SDS011;38719;51.418;7.286;2022-09-30T13:44:37;6.35;;;3.03;;
52854;SDS011;38719;51.418;7.286;2022-09-30T13:47:16;4.28;;;3.13;;
52854;SDS011;38719;51.418;7.286;2022-09-30T13:49:48;4.38;;;3.70;;
52854;SDS011;38719;51.418;7.286;2022-09-30T13:52:23;7.13;;;3.65;;
52854;SDS011;38719;51.418;7.286;2022-09-30T13:54:54;6.93;;;3.95;;
52854;SDS011;38719;51.418;7.286;2022-09-30T13:57:27;10.65;;;3.88;;
52854;SDS011;38719;51.418;7.286;2022-09-30T14:00:05;5.80;;;3.28;;
52854;SDS011;38719;51.418;7.286;2022-09-30T14:08:20;5.50;;;3.60;;
52854;SDS011;38719;51.418;7.286;2022-09-30T14:11:04;6.45;;;4.10;;
52854;SDS011;38719;51.418;7.286;2022-09-30T14:13:48;9.82;;;4.18;;
52854;SDS011;38719;51.418;7.286;2022-09-30T14:19:30;6.10;;;3.95;;
52854;SDS011;38719;51.418;7.286;2022-09-30T14:22:12;5.95;;;3.20;;
52854;SDS011;38719;51.418;7.286;2022-09-30T14:24:41;8.48;;;4.18;;
52854;SDS011;38719;51.418;7.286;2022-09-30T14:30:11;6.47;;;3.53;;
52854;SDS011;38719;51.418;7.286;2022-09-30T14:32:43;5.85;;;3.88;;
52854;SDS011;38719;51.418;7.286;2022-09-30T14:35:13;4.60;;;3.42;;
52854;SDS011;38719;51.418;7.286;2022-09-30T14:37:44;5.15;;;2.90;;
52854;SDS011;38719;51.418;7.286;2022-09-30T14:40:15;8.55;;;3.50;;
52854;SDS011;38719;51.418;7.286;2022-09-30T14:42:45;4.22;;;3.10;;
52854;SDS011;38719;51.418;7.286;2022-09-30T14:45:20;6.40;;;3.10;;
52854;SDS011;38719;51.418;7.286;2022-09-30T14:47:52;5.93;;;3.08;;
52854;SDS011;38719;51.418;7.286;2022-09-30T14:50:25;8.70;;;3.55;;
52854;SDS011;38719;51.418;7.286;2022-09-30T14:52:56;4.07;;;2.97;;
52854;SDS011;38719;51.418;7.286;2022-09-30T14:55:27;6.88;;;3.05;;
52854;SDS011;38719;51.418;7.286;2022-09-30T15:00:49;4.78;;;3.22;;
52854;SDS011;38719;51.418;7.286;2022-09-30T15:03:24;7.95;;;3.53;;
52854;SDS011;38719;51.418;7.286;2022-09-30T15:05:53;5.85;;;3.03;;
52854;SDS011;38719;51.418;7.286;2022-09-30T15:08:23;4.60;;;3.20;;
52854;SDS011;38719;51.418;7.286;2022-09-30T15:10:51;4.68;;;3.00;;
52854;SDS011;38719;51.418;7.286;2022-09-30T15:13:21;5.53;;;2.58;;
52854;SDS011;38719;51.418;7.286;2022-09-30T15:15:52;9.40;;;2.95;;
52854;SDS011;38719;51.418;7.286;2022-09-30T15:18:23;3.35;;;2.58;;
52854;SDS011;38719;51.418;7.286;2022-09-30T15:20:53;4.25;;;2.50;;
52854;SDS011;38719;51.418;7.286;2022-09-30T15:23:24;4.00;;;2.90;;
52854;SDS011;38719;51.418;7.286;2022-09-30T15:25:54;4.18;;;2.80;;
52854;SDS011;38719;51.418;7.286;2022-09-30T15:28:25;7.55;;;2.88;;
52854;SDS011;38719;51.418;7.286;2022-09-30T15:30:55;8.75;;;3.00;;
52854;SDS011;38719;51.418;7.286;2022-09-30T15:33:24;3.80;;;2.33;;
52854;SDS011;38719;51.418;7.286;2022-09-30T15:36:00;5.95;;;3.00;;
52854;SDS011;38719;51.418;7.286;2022-09-30T15:38:29;5.50;;;2.60;;
52854;SDS011;38719;51.418;7.286;2022-09-30T15:40:59;5.47;;;2.45;;
52854;SDS011;38719;51.418;7.286;2022-09-30T15:43:40;7.13;;;2.72;;
52854;SDS011;38719;51.418;7.286;2022-09-30T15:46:18;9.68;;;2.72;;
52854;SDS011;38719;51.418;7.286;2022-09-30T15:48:51;3.75;;;2.45;;
52854;SDS011;38719;51.418;7.286;2022-09-30T15:51:24;7.00;;;2.72;;
52854;SDS011;38719;51.418;7.286;2022-09-30T15:56:59;18.30;;;6.65;;